sensor_id;sensor_type;location;lat;lon;timestamp;temperature;humidity
2571;DHT22;1295;51.130;6.732;2022-10-16T00:02:22;14.60;99.90
2571;DHT22;1295;51.130;6.732;2022-10-16T00:04:48;14.70;99.90
2571;DHT22;1295;51.130;6.732;2022-10-16T00:07:14;14.60;99.90
2571;DHT22;1295;51.130;6.732;2022-10-16T00:09:39;14.50;99.90
2571;DHT22;1295;51.130;6.732;2022-10-16T00:12:05;14.80;99.90
2571;DHT22;1295;51.130;6.732;2022-10-16T00:14:30;14.90;99.90
2571;DHT22;1295;51.130;6.732;2022-10-16T00:16:56;15.10;99.90
2571;DHT22;1295;51.130;6.732;2022-10-16T00:19:22;15.20;99.90
2571;DHT22;1295;51.130;6.732;2022-10-16T00:21:47;15.20;99.90
2571;DHT22;1295;51.130;6.732;2022-10-16T00:24:13;15.10;99.90
2571;DHT22;1295;51.130;6.732;2022-10-16T00:26:39;14.90;99.90
2571;DHT22;1295;51.130;6.732;2022-10-16T00:29:09;15.00;99.90
2571;DHT22;1295;51.130;6.732;2022-10-16T00:31:35;14.90;99.90
2571;DHT22;1295;51.130;6.732;2022-10-16T00:34:01;14.50;99.90
2571;DHT22;1295;51.130;6.732;2022-10-16T00:36:26;14.30;99.90
2571;DHT22;1295;51.130;6.732;2022-10-16T00:38:53;14.50;99.90
2571;DHT22;1295;51.130;6.732;2022-10-16T00:41:18;14.40;99.90
2571;DHT22;1295;51.130;6.732;2022-10-16T00:43:46;14.60;99.90
2571;DHT22;1295;51.130;6.732;2022-10-16T00:46:13;14.70;99.90
2571;DHT22;1295;51.130;6.732;2022-10-16T00:48:36;14.60;99.90
2571;DHT22;1295;51.130;6.732;2022-10-16T00:51:02;14.50;99.90
2571;DHT22;1295;51.130;6.732;2022-10-16T00:53:27;14.50;99.90
2571;DHT22;1295;51.130;6.732;2022-10-16T00:55:53;14.30;99.90
2571;DHT22;1295;51.130;6.732;2022-10-16T00:58:19;14.30;99.90
2571;DHT22;1295;51.130;6.732;2022-10-16T01:00:44;14.50;99.90
2571;DHT22;1295;51.130;6.732;2022-10-16T01:03:28;14.30;99.90
2571;DHT22;1295;51.130;6.732;2022-10-16T01:06:00;14.10;99.90
2571;DHT22;1295;51.130;6.732;2022-10-16T01:08:23;14.20;99.90
2571;DHT22;1295;51.130;6.732;2022-10-16T01:11:06;14.10;99.90
2571;DHT22;1295;51.130;6.732;2022-10-16T01:13:32;14.20;99.90
2571;DHT22;1295;51.130;6.732;2022-10-16T01:16:01;14.10;99.90
2571;DHT22;1295;51.130;6.732;2022-10-16T01:18:30;14.10;99.90
2571;DHT22;1295;51.130;6.732;2022-10-16T01:20:55;14.10;99.90
2571;DHT22;1295;51.130;6.732;2022-10-16T01:23:34;14.10;99.90
2571;DHT22;1295;51.130;6.732;2022-10-16T01:26:03;14.20;99.90
2571;DHT22;1295;51.130;6.732;2022-10-16T01:28:27;14.20;99.90
2571;DHT22;1295;51.130;6.732;2022-10-16T01:30:51;14.20;99.90
2571;DHT22;1295;51.130;6.732;2022-10-16T01:33:19;14.20;99.90
2571;DHT22;1295;51.130;6.732;2022-10-16T01:35:43;14.30;99.90
2571;DHT22;1295;51.130;6.732;2022-10-16T01:38:19;14.50;99.90
2571;DHT22;1295;51.130;6.732;2022-10-16T01:40:46;14.30;99.90
2571;DHT22;1295;51.130;6.732;2022-10-16T01:43:12;14.30;99.90
2571;DHT22;1295;51.130;6.732;2022-10-16T01:45:35;14.40;99.90
2571;DHT22;1295;51.130;6.732;2022-10-16T01:48:02;14.50;99.90
2571;DHT22;1295;51.130;6.732;2022-10-16T01:50:27;14.40;99.90
2571;DHT22;1295;51.130;6.732;2022-10-16T01:52:52;14.60;99.90
2571;DHT22;1295;51.130;6.732;2022-10-16T01:55:20;14.60;99.90
2571;DHT22;1295;51.130;6.732;2022-10-16T01:57:44;14.40;99.90
2571;DHT22;1295;51.130;6.732;2022-10-16T02:00:11;14.30;99.90
2571;DHT22;1295;51.130;6.732;2022-10-16T02:02:36;14.40;99.90
2571;DHT22;1295;51.130;6.732;2022-10-16T02:05:05;14.70;99.90
2571;DHT22;1295;51.130;6.732;2022-10-16T02:07:30;14.50;99.90
2571;DHT22;1295;51.130;6.732;2022-10-16T02:09:57;14.50;99.90
2571;DHT22;1295;51.130;6.732;2022-10-16T02:12:27;14.50;99.90
2571;DHT22;1295;51.130;6.732;2022-10-16T02:14:51;14.50;99.90
2571;DHT22;1295;51.130;6.732;2022-10-16T02:17:17;14.60;99.90
2571;DHT22;1295;51.130;6.732;2022-10-16T02:19:42;14.50;99.90
2571;DHT22;1295;51.130;6.732;2022-10-16T02:22:09;14.30;99.90
2571;DHT22;1295;51.130;6.732;2022-10-16T02:24:40;14.30;99.90
2571;DHT22;1295;51.130;6.732;2022-10-16T02:27:09;14.30;99.90
2571;DHT22;1295;51.130;6.732;2022-10-16T02:29:32;14.30;99.90
2571;DHT22;1295;51.130;6.732;2022-10-16T02:31:59;14.60;99.90
2571;DHT22;1295;51.130;6.732;2022-10-16T02:34:24;14.30;99.90
2571;DHT22;1295;51.130;6.732;2022-10-16T02:36:49;14.40;99.90
2571;DHT22;1295;51.130;6.732;2022-10-16T02:39:15;14.50;99.90
2571;DHT22;1295;51.130;6.732;2022-10-16T02:41:40;14.30;99.90
2571;DHT22;1295;51.130;6.732;2022-10-16T02:44:06;14.40;99.90
2571;DHT22;1295;51.130;6.732;2022-10-16T02:46:31;14.30;99.90
2571;DHT22;1295;51.130;6.732;2022-10-16T02:48:57;14.30;99.90
2571;DHT22;1295;51.130;6.732;2022-10-16T02:51:23;14.20;99.90
2571;DHT22;1295;51.130;6.732;2022-10-16T02:53:48;14.30;99.90
2571;DHT22;1295;51.130;6.732;2022-10-16T02:56:14;14.30;99.90
2571;DHT22;1295;51.130;6.732;2022-10-16T02:58:40;14.10;99.90
2571;DHT22;1295;51.130;6.732;2022-10-16T03:01:05;14.30;99.90
2571;DHT22;1295;51.130;6.732;2022-10-16T03:03:31;14.20;99.90
2571;DHT22;1295;51.130;6.732;2022-10-16T03:05:56;14.30;99.90
2571;DHT22;1295;51.130;6.732;2022-10-16T03:08:22;14.20;99.90
2571;DHT22;1295;51.130;6.732;2022-10-16T03:10:48;14.40;99.90
2571;DHT22;1295;51.130;6.732;2022-10-16T03:13:13;14.40;99.90
2571;DHT22;1295;51.130;6.732;2022-10-16T03:15:39;14.40;99.90
2571;DHT22;1295;51.130;6.732;2022-10-16T03:18:05;14.50;99.90
2571;DHT22;1295;51.130;6.732;2022-10-16T03:20:31;14.50;99.90
2571;DHT22;1295;51.130;6.732;2022-10-16T03:22:57;14.30;99.90
2571;DHT22;1295;51.130;6.732;2022-10-16T03:25:22;14.20;99.90
2571;DHT22;1295;51.130;6.732;2022-10-16T03:27:48;14.10;99.90
2571;DHT22;1295;51.130;6.732;2022-10-16T03:30:14;14.10;99.90
2571;DHT22;1295;51.130;6.732;2022-10-16T03:32:39;14.00;99.90
2571;DHT22;1295;51.130;6.732;2022-10-16T03:35:06;14.00;99.90
2571;DHT22;1295;51.130;6.732;2022-10-16T03:37:33;14.00;99.90
2571;DHT22;1295;51.130;6.732;2022-10-16T03:39:58;14.00;99.90
2571;DHT22;1295;51.130;6.732;2022-10-16T03:42:24;13.90;99.90
2571;DHT22;1295;51.130;6.732;2022-10-16T03:44:50;13.90;99.90
2571;DHT22;1295;51.130;6.732;2022-10-16T03:47:15;13.90;99.90
2571;DHT22;1295;51.130;6.732;2022-10-16T03:49:41;13.90;99.90
2571;DHT22;1295;51.130;6.732;2022-10-16T03:52:07;13.90;99.90
2571;DHT22;1295;51.130;6.732;2022-10-16T03:54:32;13.70;99.90
2571;DHT22;1295;51.130;6.732;2022-10-16T03:56:58;14.00;99.90
2571;DHT22;1295;51.130;6.732;2022-10-16T03:59:24;13.80;99.90
2571;DHT22;1295;51.130;6.732;2022-10-16T04:01:51;14.00;99.90
2571;DHT22;1295;51.130;6.732;2022-10-16T04:04:16;14.00;99.90
2571;DHT22;1295;51.130;6.732;2022-10-16T04:06:42;14.00;99.90
2571;DHT22;1295;51.130;6.732;2022-10-16T04:09:08;13.90;99.90
2571;DHT22;1295;51.130;6.732;2022-10-16T04:11:33;13.90;99.90
2571;DHT22;1295;51.130;6.732;2022-10-16T04:13:59;13.80;99.90
2571;DHT22;1295;51.130;6.732;2022-10-16T04:16:26;13.70;99.90
2571;DHT22;1295;51.130;6.732;2022-10-16T04:18:52;13.70;99.90
2571;DHT22;1295;51.130;6.732;2022-10-16T04:21:17;13.60;99.90
2571;DHT22;1295;51.130;6.732;2022-10-16T04:23:43;13.70;99.90
2571;DHT22;1295;51.130;6.732;2022-10-16T04:26:08;13.70;99.90
2571;DHT22;1295;51.130;6.732;2022-10-16T04:28:34;13.70;99.90
2571;DHT22;1295;51.130;6.732;2022-10-16T04:31:00;13.60;99.90
2571;DHT22;1295;51.130;6.732;2022-10-16T04:33:25;13.60;99.90
2571;DHT22;1295;51.130;6.732;2022-10-16T04:35:57;13.70;99.90
2571;DHT22;1295;51.130;6.732;2022-10-16T04:38:21;13.90;99.90
2571;DHT22;1295;51.130;6.732;2022-10-16T04:40:47;14.00;99.90
2571;DHT22;1295;51.130;6.732;2022-10-16T04:43:13;13.90;99.90
2571;DHT22;1295;51.130;6.732;2022-10-16T04:45:38;13.70;99.90
2571;DHT22;1295;51.130;6.732;2022-10-16T04:48:04;13.60;99.90
2571;DHT22;1295;51.130;6.732;2022-10-16T04:50:29;13.60;99.90
2571;DHT22;1295;51.130;6.732;2022-10-16T04:52:55;13.50;99.90
2571;DHT22;1295;51.130;6.732;2022-10-16T04:55:21;13.50;99.90
2571;DHT22;1295;51.130;6.732;2022-10-16T04:57:46;13.50;99.90
2571;DHT22;1295;51.130;6.732;2022-10-16T05:00:12;13.40;99.90
2571;DHT22;1295;51.130;6.732;2022-10-16T05:02:38;13.30;99.90
2571;DHT22;1295;51.130;6.732;2022-10-16T05:05:05;13.50;99.90
2571;DHT22;1295;51.130;6.732;2022-10-16T05:07:30;13.70;99.90
2571;DHT22;1295;51.130;6.732;2022-10-16T05:09:56;13.60;99.90
2571;DHT22;1295;51.130;6.732;2022-10-16T05:12:22;13.40;99.90
2571;DHT22;1295;51.130;6.732;2022-10-16T05:14:47;13.40;99.90
2571;DHT22;1295;51.130;6.732;2022-10-16T05:17:13;13.30;99.90
2571;DHT22;1295;51.130;6.732;2022-10-16T05:19:39;13.20;99.90
2571;DHT22;1295;51.130;6.732;2022-10-16T05:22:04;13.40;99.90
2571;DHT22;1295;51.130;6.732;2022-10-16T05:24:30;13.40;99.90
2571;DHT22;1295;51.130;6.732;2022-10-16T05:26:55;13.20;99.90
2571;DHT22;1295;51.130;6.732;2022-10-16T05:29:21;13.40;99.90
2571;DHT22;1295;51.130;6.732;2022-10-16T05:31:49;13.40;99.90
2571;DHT22;1295;51.130;6.732;2022-10-16T05:34:12;13.60;99.90
2571;DHT22;1295;51.130;6.732;2022-10-16T05:36:38;13.70;99.90
2571;DHT22;1295;51.130;6.732;2022-10-16T05:39:04;13.50;99.90
2571;DHT22;1295;51.130;6.732;2022-10-16T05:41:29;13.50;99.90
2571;DHT22;1295;51.130;6.732;2022-10-16T05:43:56;13.30;99.90
2571;DHT22;1295;51.130;6.732;2022-10-16T05:46:21;13.30;99.90
2571;DHT22;1295;51.130;6.732;2022-10-16T05:48:47;13.30;99.90
2571;DHT22;1295;51.130;6.732;2022-10-16T05:51:13;13.30;99.90
2571;DHT22;1295;51.130;6.732;2022-10-16T05:53:39;13.30;99.90
2571;DHT22;1295;51.130;6.732;2022-10-16T05:56:06;13.30;99.90
2571;DHT22;1295;51.130;6.732;2022-10-16T05:58:32;13.40;99.90
2571;DHT22;1295;51.130;6.732;2022-10-16T06:00:59;13.30;99.90
2571;DHT22;1295;51.130;6.732;2022-10-16T06:03:23;13.50;99.90
2571;DHT22;1295;51.130;6.732;2022-10-16T06:05:49;13.40;99.90
2571;DHT22;1295;51.130;6.732;2022-10-16T06:08:16;13.40;99.90
2571;DHT22;1295;51.130;6.732;2022-10-16T06:10:41;13.40;99.90
2571;DHT22;1295;51.130;6.732;2022-10-16T06:13:07;13.60;99.90
2571;DHT22;1295;51.130;6.732;2022-10-16T06:15:32;13.50;99.90
2571;DHT22;1295;51.130;6.732;2022-10-16T06:17:58;13.60;99.90
2571;DHT22;1295;51.130;6.732;2022-10-16T06:20:23;13.60;99.90
2571;DHT22;1295;51.130;6.732;2022-10-16T06:22:49;13.60;99.90
2571;DHT22;1295;51.130;6.732;2022-10-16T06:25:15;13.50;99.90
2571;DHT22;1295;51.130;6.732;2022-10-16T06:27:41;13.50;99.90
2571;DHT22;1295;51.130;6.732;2022-10-16T06:30:08;13.60;99.90
2571;DHT22;1295;51.130;6.732;2022-10-16T06:32:35;13.70;99.90
2571;DHT22;1295;51.130;6.732;2022-10-16T06:35:00;13.60;99.90
2571;DHT22;1295;51.130;6.732;2022-10-16T06:37:27;13.70;99.90
2571;DHT22;1295;51.130;6.732;2022-10-16T06:39:52;13.70;99.90
2571;DHT22;1295;51.130;6.732;2022-10-16T06:42:18;13.60;99.90
2571;DHT22;1295;51.130;6.732;2022-10-16T06:44:44;13.60;99.90
2571;DHT22;1295;51.130;6.732;2022-10-16T06:47:09;13.60;99.90
2571;DHT22;1295;51.130;6.732;2022-10-16T06:49:35;13.70;99.90
2571;DHT22;1295;51.130;6.732;2022-10-16T06:52:00;13.60;99.90
2571;DHT22;1295;51.130;6.732;2022-10-16T06:54:26;13.60;99.90
2571;DHT22;1295;51.130;6.732;2022-10-16T06:56:52;13.70;99.90
2571;DHT22;1295;51.130;6.732;2022-10-16T06:59:18;13.80;99.90
2571;DHT22;1295;51.130;6.732;2022-10-16T07:01:43;13.90;99.90
2571;DHT22;1295;51.130;6.732;2022-10-16T07:04:09;13.90;99.90
2571;DHT22;1295;51.130;6.732;2022-10-16T07:06:34;13.90;99.90
2571;DHT22;1295;51.130;6.732;2022-10-16T07:09:02;14.00;99.90
2571;DHT22;1295;51.130;6.732;2022-10-16T07:11:26;14.00;99.90
2571;DHT22;1295;51.130;6.732;2022-10-16T07:13:52;14.00;99.90
2571;DHT22;1295;51.130;6.732;2022-10-16T07:16:19;13.90;99.90
2571;DHT22;1295;51.130;6.732;2022-10-16T07:18:44;13.90;99.90
2571;DHT22;1295;51.130;6.732;2022-10-16T07:21:11;14.00;99.90
2571;DHT22;1295;51.130;6.732;2022-10-16T07:23:37;14.10;99.90
2571;DHT22;1295;51.130;6.732;2022-10-16T07:26:02;14.00;99.90
2571;DHT22;1295;51.130;6.732;2022-10-16T07:28:28;14.00;99.90
2571;DHT22;1295;51.130;6.732;2022-10-16T07:30:53;14.20;99.90
2571;DHT22;1295;51.130;6.732;2022-10-16T07:33:19;14.20;99.90
2571;DHT22;1295;51.130;6.732;2022-10-16T07:35:51;14.20;99.90
2571;DHT22;1295;51.130;6.732;2022-10-16T07:38:16;14.30;99.90
2571;DHT22;1295;51.130;6.732;2022-10-16T07:40:42;14.30;99.90
2571;DHT22;1295;51.130;6.732;2022-10-16T07:43:07;14.30;99.90
2571;DHT22;1295;51.130;6.732;2022-10-16T07:45:33;14.30;99.90
2571;DHT22;1295;51.130;6.732;2022-10-16T07:47:58;14.40;99.90
2571;DHT22;1295;51.130;6.732;2022-10-16T07:50:24;14.60;99.90
2571;DHT22;1295;51.130;6.732;2022-10-16T07:52:50;15.60;99.90
2571;DHT22;1295;51.130;6.732;2022-10-16T07:55:16;15.60;99.90
2571;DHT22;1295;51.130;6.732;2022-10-16T07:57:42;15.70;99.90
2571;DHT22;1295;51.130;6.732;2022-10-16T08:00:08;16.00;99.90
2571;DHT22;1295;51.130;6.732;2022-10-16T08:02:34;16.20;99.90
2571;DHT22;1295;51.130;6.732;2022-10-16T08:05:00;16.50;99.90
2571;DHT22;1295;51.130;6.732;2022-10-16T08:07:27;16.90;99.90
2571;DHT22;1295;51.130;6.732;2022-10-16T08:09:52;16.90;99.90
2571;DHT22;1295;51.130;6.732;2022-10-16T08:12:18;16.90;99.90
2571;DHT22;1295;51.130;6.732;2022-10-16T08:14:44;16.80;99.90
2571;DHT22;1295;51.130;6.732;2022-10-16T08:17:09;17.00;99.90
2571;DHT22;1295;51.130;6.732;2022-10-16T08:19:35;17.10;99.90
2571;DHT22;1295;51.130;6.732;2022-10-16T08:22:00;16.90;99.90
2571;DHT22;1295;51.130;6.732;2022-10-16T08:24:26;17.50;99.90
2571;DHT22;1295;51.130;6.732;2022-10-16T08:26:53;17.70;99.90
2571;DHT22;1295;51.130;6.732;2022-10-16T08:29:18;17.90;99.90
2571;DHT22;1295;51.130;6.732;2022-10-16T08:31:44;17.80;99.90
2571;DHT22;1295;51.130;6.732;2022-10-16T08:34:09;18.10;99.90
2571;DHT22;1295;51.130;6.732;2022-10-16T08:36:35;17.70;99.90
2571;DHT22;1295;51.130;6.732;2022-10-16T08:39:01;17.60;99.90
2571;DHT22;1295;51.130;6.732;2022-10-16T08:41:52;18.10;99.90
2571;DHT22;1295;51.130;6.732;2022-10-16T08:44:05;18.00;99.90
2571;DHT22;1295;51.130;6.732;2022-10-16T08:46:32;19.00;99.90
2571;DHT22;1295;51.130;6.732;2022-10-16T08:48:56;18.50;99.90
2571;DHT22;1295;51.130;6.732;2022-10-16T08:51:24;18.40;99.90
2571;DHT22;1295;51.130;6.732;2022-10-16T08:53:56;19.10;99.90
2571;DHT22;1295;51.130;6.732;2022-10-16T08:56:24;18.60;99.90
2571;DHT22;1295;51.130;6.732;2022-10-16T08:58:49;18.60;99.90
2571;DHT22;1295;51.130;6.732;2022-10-16T09:01:15;18.90;99.90
2571;DHT22;1295;51.130;6.732;2022-10-16T09:09:04;19.00;99.90
2571;DHT22;1295;51.130;6.732;2022-10-16T09:11:45;19.00;99.90
2571;DHT22;1295;51.130;6.732;2022-10-16T09:14:58;18.70;99.90
2571;DHT22;1295;51.130;6.732;2022-10-16T09:17:22;19.30;99.90
2571;DHT22;1295;51.130;6.732;2022-10-16T09:19:46;19.20;99.90
2571;DHT22;1295;51.130;6.732;2022-10-16T09:22:12;18.90;99.90
2571;DHT22;1295;51.130;6.732;2022-10-16T09:24:36;19.40;99.90
2571;DHT22;1295;51.130;6.732;2022-10-16T09:27:02;19.00;99.90
2571;DHT22;1295;51.130;6.732;2022-10-16T09:29:28;18.60;99.90
2571;DHT22;1295;51.130;6.732;2022-10-16T09:31:53;19.60;99.90
2571;DHT22;1295;51.130;6.732;2022-10-16T09:34:32;20.10;99.90
2571;DHT22;1295;51.130;6.732;2022-10-16T09:36:50;20.20;99.90
2571;DHT22;1295;51.130;6.732;2022-10-16T09:39:15;19.90;99.90
2571;DHT22;1295;51.130;6.732;2022-10-16T09:41:42;19.50;99.90
2571;DHT22;1295;51.130;6.732;2022-10-16T09:44:28;20.20;99.90
2571;DHT22;1295;51.130;6.732;2022-10-16T09:47:01;20.10;99.90
2571;DHT22;1295;51.130;6.732;2022-10-16T09:49:26;20.40;99.90
2571;DHT22;1295;51.130;6.732;2022-10-16T09:52:02;20.00;99.90
2571;DHT22;1295;51.130;6.732;2022-10-16T09:54:18;19.90;99.90
2571;DHT22;1295;51.130;6.732;2022-10-16T09:56:43;21.60;99.90
2571;DHT22;1295;51.130;6.732;2022-10-16T09:59:10;21.60;99.90
2571;DHT22;1295;51.130;6.732;2022-10-16T10:01:36;21.20;99.90
2571;DHT22;1295;51.130;6.732;2022-10-16T10:04:01;19.80;99.90
2571;DHT22;1295;51.130;6.732;2022-10-16T10:06:29;19.70;99.90
2571;DHT22;1295;51.130;6.732;2022-10-16T10:08:56;21.20;99.90
2571;DHT22;1295;51.130;6.732;2022-10-16T10:14:04;20.70;99.90
2571;DHT22;1295;51.130;6.732;2022-10-16T10:16:29;21.20;99.90
2571;DHT22;1295;51.130;6.732;2022-10-16T10:18:58;20.60;99.90
2571;DHT22;1295;51.130;6.732;2022-10-16T10:21:23;20.10;99.90
2571;DHT22;1295;51.130;6.732;2022-10-16T10:23:54;20.10;99.90
2571;DHT22;1295;51.130;6.732;2022-10-16T10:26:16;19.80;99.90
2571;DHT22;1295;51.130;6.732;2022-10-16T10:28:50;19.60;99.90
2571;DHT22;1295;51.130;6.732;2022-10-16T10:31:52;19.70;99.90
2571;DHT22;1295;51.130;6.732;2022-10-16T10:34:26;19.30;99.90
2571;DHT22;1295;51.130;6.732;2022-10-16T10:36:47;18.90;99.90
2571;DHT22;1295;51.130;6.732;2022-10-16T10:39:22;18.70;99.90
2571;DHT22;1295;51.130;6.732;2022-10-16T10:41:59;18.70;99.90
2571;DHT22;1295;51.130;6.732;2022-10-16T10:44:50;19.40;99.90
2571;DHT22;1295;51.130;6.732;2022-10-16T10:47:23;19.50;99.90
2571;DHT22;1295;51.130;6.732;2022-10-16T10:49:50;21.00;99.90
2571;DHT22;1295;51.130;6.732;2022-10-16T10:57:40;19.80;99.90
2571;DHT22;1295;51.130;6.732;2022-10-16T11:00:40;20.50;99.90
2571;DHT22;1295;51.130;6.732;2022-10-16T11:02:52;19.70;99.90
2571;DHT22;1295;51.130;6.732;2022-10-16T11:05:21;19.70;99.90
2571;DHT22;1295;51.130;6.732;2022-10-16T11:07:49;18.80;99.90
2571;DHT22;1295;51.130;6.732;2022-10-16T11:10:17;20.10;99.90
2571;DHT22;1295;51.130;6.732;2022-10-16T11:12:44;19.30;99.90
2571;DHT22;1295;51.130;6.732;2022-10-16T11:15:15;19.30;99.90
2571;DHT22;1295;51.130;6.732;2022-10-16T11:17:42;19.40;99.90
2571;DHT22;1295;51.130;6.732;2022-10-16T11:20:18;20.30;99.90
2571;DHT22;1295;51.130;6.732;2022-10-16T11:22:44;20.70;99.90
2571;DHT22;1295;51.130;6.732;2022-10-16T11:25:18;20.90;99.90
2571;DHT22;1295;51.130;6.732;2022-10-16T11:27:47;20.60;99.90
2571;DHT22;1295;51.130;6.732;2022-10-16T11:30:16;20.80;99.90
2571;DHT22;1295;51.130;6.732;2022-10-16T11:32:47;20.10;99.90
2571;DHT22;1295;51.130;6.732;2022-10-16T11:35:13;20.10;99.90
2571;DHT22;1295;51.130;6.732;2022-10-16T11:37:38;20.80;99.90
2571;DHT22;1295;51.130;6.732;2022-10-16T11:40:09;19.90;99.90
2571;DHT22;1295;51.130;6.732;2022-10-16T11:42:31;20.70;99.90
2571;DHT22;1295;51.130;6.732;2022-10-16T11:45:00;21.60;99.90
2571;DHT22;1295;51.130;6.732;2022-10-16T11:49:59;22.10;99.90
2571;DHT22;1295;51.130;6.732;2022-10-16T11:52:30;23.10;99.90
2571;DHT22;1295;51.130;6.732;2022-10-16T11:54:56;22.40;99.90
2571;DHT22;1295;51.130;6.732;2022-10-16T11:57:23;21.70;99.90
2571;DHT22;1295;51.130;6.732;2022-10-16T12:00:05;22.10;99.90
2571;DHT22;1295;51.130;6.732;2022-10-16T12:02:44;20.20;99.90
2571;DHT22;1295;51.130;6.732;2022-10-16T12:05:14;20.20;99.90
2571;DHT22;1295;51.130;6.732;2022-10-16T12:07:40;20.80;99.90
2571;DHT22;1295;51.130;6.732;2022-10-16T12:12:43;22.60;99.90
2571;DHT22;1295;51.130;6.732;2022-10-16T12:18:00;22.80;99.90
2571;DHT22;1295;51.130;6.732;2022-10-16T12:20:29;23.10;99.90
2571;DHT22;1295;51.130;6.732;2022-10-16T12:22:57;22.60;99.90
2571;DHT22;1295;51.130;6.732;2022-10-16T12:25:34;21.60;99.90
2571;DHT22;1295;51.130;6.732;2022-10-16T12:28:04;21.60;99.90
2571;DHT22;1295;51.130;6.732;2022-10-16T12:30:30;22.10;99.90
2571;DHT22;1295;51.130;6.732;2022-10-16T12:32:55;21.50;99.90
2571;DHT22;1295;51.130;6.732;2022-10-16T12:35:21;21.50;99.90
2571;DHT22;1295;51.130;6.732;2022-10-16T12:37:46;21.60;99.90
2571;DHT22;1295;51.130;6.732;2022-10-16T12:40:14;22.80;99.90
2571;DHT22;1295;51.130;6.732;2022-10-16T12:42:39;22.30;99.90
2571;DHT22;1295;51.130;6.732;2022-10-16T12:45:22;22.30;99.90
2571;DHT22;1295;51.130;6.732;2022-10-16T12:47:47;20.70;99.90
2571;DHT22;1295;51.130;6.732;2022-10-16T12:50:21;19.70;99.90
2571;DHT22;1295;51.130;6.732;2022-10-16T12:52:36;20.60;99.90
2571;DHT22;1295;51.130;6.732;2022-10-16T12:55:01;21.10;99.90
2571;DHT22;1295;51.130;6.732;2022-10-16T12:57:36;21.10;99.90
2571;DHT22;1295;51.130;6.732;2022-10-16T13:01:08;20.70;99.90
2571;DHT22;1295;51.130;6.732;2022-10-16T13:05:29;21.20;99.90
2571;DHT22;1295;51.130;6.732;2022-10-16T13:14:17;21.20;99.90
2571;DHT22;1295;51.130;6.732;2022-10-16T13:17:00;20.90;99.90
2571;DHT22;1295;51.130;6.732;2022-10-16T13:19:29;21.60;99.90
2571;DHT22;1295;51.130;6.732;2022-10-16T13:22:21;20.90;99.90
2571;DHT22;1295;51.130;6.732;2022-10-16T13:25:28;19.70;99.90
2571;DHT22;1295;51.130;6.732;2022-10-16T13:27:42;20.70;99.90
2571;DHT22;1295;51.130;6.732;2022-10-16T13:30:15;21.00;99.90
2571;DHT22;1295;51.130;6.732;2022-10-16T13:32:39;21.50;99.90
2571;DHT22;1295;51.130;6.732;2022-10-16T13:35:17;21.50;99.90
2571;DHT22;1295;51.130;6.732;2022-10-16T13:37:31;22.60;99.90
2571;DHT22;1295;51.130;6.732;2022-10-16T13:40:02;22.40;99.90
2571;DHT22;1295;51.130;6.732;2022-10-16T13:42:27;22.40;99.90
2571;DHT22;1295;51.130;6.732;2022-10-16T13:44:53;22.70;99.90
2571;DHT22;1295;51.130;6.732;2022-10-16T13:47:20;22.30;99.90
2571;DHT22;1295;51.130;6.732;2022-10-16T13:49:45;22.20;99.90
2571;DHT22;1295;51.130;6.732;2022-10-16T13:52:16;21.70;99.90
2571;DHT22;1295;51.130;6.732;2022-10-16T13:54:40;21.10;99.90
2571;DHT22;1295;51.130;6.732;2022-10-16T13:57:06;20.80;99.90
2571;DHT22;1295;51.130;6.732;2022-10-16T13:59:33;21.80;99.90
2571;DHT22;1295;51.130;6.732;2022-10-16T14:01:58;22.10;99.90
2571;DHT22;1295;51.130;6.732;2022-10-16T14:04:24;21.00;99.90
2571;DHT22;1295;51.130;6.732;2022-10-16T14:06:51;20.60;99.90
2571;DHT22;1295;51.130;6.732;2022-10-16T14:09:22;20.50;99.90
2571;DHT22;1295;51.130;6.732;2022-10-16T14:11:48;21.20;99.90
2571;DHT22;1295;51.130;6.732;2022-10-16T14:14:12;20.50;99.90
2571;DHT22;1295;51.130;6.732;2022-10-16T14:16:37;20.20;99.90
2571;DHT22;1295;51.130;6.732;2022-10-16T14:19:04;20.60;99.90
2571;DHT22;1295;51.130;6.732;2022-10-16T14:21:29;20.60;99.90
2571;DHT22;1295;51.130;6.732;2022-10-16T14:23:55;20.60;99.90
2571;DHT22;1295;51.130;6.732;2022-10-16T14:26:21;20.60;99.90
2571;DHT22;1295;51.130;6.732;2022-10-16T14:28:47;21.50;99.90
2571;DHT22;1295;51.130;6.732;2022-10-16T14:31:23;21.40;99.90
2571;DHT22;1295;51.130;6.732;2022-10-16T14:33:47;20.60;99.90
2571;DHT22;1295;51.130;6.732;2022-10-16T14:36:13;20.00;99.90
2571;DHT22;1295;51.130;6.732;2022-10-16T14:38:41;19.60;99.90
2571;DHT22;1295;51.130;6.732;2022-10-16T14:41:07;19.60;99.90
2571;DHT22;1295;51.130;6.732;2022-10-16T14:43:35;19.60;99.90
2571;DHT22;1295;51.130;6.732;2022-10-16T14:46:00;19.70;99.90
2571;DHT22;1295;51.130;6.732;2022-10-16T14:48:25;19.50;99.90
2571;DHT22;1295;51.130;6.732;2022-10-16T14:50:51;19.40;99.90
2571;DHT22;1295;51.130;6.732;2022-10-16T14:53:17;19.40;99.90
2571;DHT22;1295;51.130;6.732;2022-10-16T14:55:42;19.40;99.90
2571;DHT22;1295;51.130;6.732;2022-10-16T14:58:21;19.30;99.90
2571;DHT22;1295;51.130;6.732;2022-10-16T15:00:45;19.00;99.90
2571;DHT22;1295;51.130;6.732;2022-10-16T15:03:11;18.90;99.90
2571;DHT22;1295;51.130;6.732;2022-10-16T15:05:37;18.90;99.90
2571;DHT22;1295;51.130;6.732;2022-10-16T15:08:03;18.90;99.90
2571;DHT22;1295;51.130;6.732;2022-10-16T15:10:29;18.90;99.90
2571;DHT22;1295;51.130;6.732;2022-10-16T15:12:55;18.90;99.90
2571;DHT22;1295;51.130;6.732;2022-10-16T15:15:33;18.90;99.90
2571;DHT22;1295;51.130;6.732;2022-10-16T15:17:58;18.90;99.90
2571;DHT22;1295;51.130;6.732;2022-10-16T15:20:24;18.80;99.90
2571;DHT22;1295;51.130;6.732;2022-10-16T15:22:49;18.70;99.90
2571;DHT22;1295;51.130;6.732;2022-10-16T15:25:26;18.70;99.90
2571;DHT22;1295;51.130;6.732;2022-10-16T15:27:48;18.70;99.90
2571;DHT22;1295;51.130;6.732;2022-10-16T15:30:15;19.00;99.90
2571;DHT22;1295;51.130;6.732;2022-10-16T15:32:40;18.90;99.90
2571;DHT22;1295;51.130;6.732;2022-10-16T15:35:08;18.90;99.90
2571;DHT22;1295;51.130;6.732;2022-10-16T15:37:31;18.90;99.90
2571;DHT22;1295;51.130;6.732;2022-10-16T15:39:57;18.90;99.90
2571;DHT22;1295;51.130;6.732;2022-10-16T15:42:23;18.90;99.90
2571;DHT22;1295;51.130;6.732;2022-10-16T15:44:50;18.80;99.90
2571;DHT22;1295;51.130;6.732;2022-10-16T15:47:15;18.80;99.90
2571;DHT22;1295;51.130;6.732;2022-10-16T15:49:41;18.80;99.90
2571;DHT22;1295;51.130;6.732;2022-10-16T15:52:07;18.70;99.90
2571;DHT22;1295;51.130;6.732;2022-10-16T15:54:33;18.70;99.90
2571;DHT22;1295;51.130;6.732;2022-10-16T15:56:59;18.70;99.90
2571;DHT22;1295;51.130;6.732;2022-10-16T15:59:24;18.70;99.90
2571;DHT22;1295;51.130;6.732;2022-10-16T16:01:50;18.70;99.90
2571;DHT22;1295;51.130;6.732;2022-10-16T16:04:15;18.70;99.90
2571;DHT22;1295;51.130;6.732;2022-10-16T16:06:46;18.70;99.90
2571;DHT22;1295;51.130;6.732;2022-10-16T16:09:22;18.70;99.90
2571;DHT22;1295;51.130;6.732;2022-10-16T16:11:48;18.60;99.90
2571;DHT22;1295;51.130;6.732;2022-10-16T16:14:14;18.60;99.90
2571;DHT22;1295;51.130;6.732;2022-10-16T16:16:39;18.50;99.90
2571;DHT22;1295;51.130;6.732;2022-10-16T16:19:05;18.50;99.90
2571;DHT22;1295;51.130;6.732;2022-10-16T16:21:31;18.40;99.90
2571;DHT22;1295;51.130;6.732;2022-10-16T16:23:57;18.40;99.90
2571;DHT22;1295;51.130;6.732;2022-10-16T16:26:26;18.40;99.90
2571;DHT22;1295;51.130;6.732;2022-10-16T16:28:52;18.40;99.90
2571;DHT22;1295;51.130;6.732;2022-10-16T16:31:17;18.50;99.90
2571;DHT22;1295;51.130;6.732;2022-10-16T16:33:42;18.60;99.90